Time,TemperatureF,DewpointF,PressureIn,WindDirection,WindDirectionDegrees,WindSpeedMPH,WindSpeedGustMPH,Humidity,HourlyPrecipIn,Conditions,Clouds,dailyrainin,SoftwareType,DateUTC
2013-08-21 00:03:00,62.8,50.9,29.77,ENE,67,3.7,-999.0,65,-99.99,,,0.00,Acu-Link.com,2013-08-21 07:03:00,
2013-08-21 00:19:00,62.6,51.1,29.77,NE,45,2.2,-999.0,66,-99.99,,,0.00,Acu-Link.com,2013-08-21 07:19:00,
2013-08-21 00:34:00,62.2,51.1,29.77,East,90,3.2,-999.0,67,-99.99,,,0.00,Acu-Link.com,2013-08-21 07:34:00,
2013-08-21 00:49:00,62.4,51.7,29.77,NE,45,1.7,-999.0,68,-99.99,,,0.00,Acu-Link.com,2013-08-21 07:49:00,
2013-08-21 01:04:00,61.9,51.2,29.78,East,90,2.7,-999.0,68,-99.99,,,0.00,Acu-Link.com,2013-08-21 08:04:00,
2013-08-21 01:20:00,61.7,51.0,29.78,NE,45,3.2,-999.0,68,-99.99,,,0.00,Acu-Link.com,2013-08-21 08:20:00,
2013-08-21 01:35:00,61.9,52.0,29.78,NE,45,3.7,-999.0,70,-99.99,,,0.00,Acu-Link.com,2013-08-21 08:35:00,
2013-08-21 01:50:00,60.4,51.7,29.77,ENE,67,1.7,-999.0,73,-99.99,,,0.00,Acu-Link.com,2013-08-21 08:50:00,
2013-08-21 02:05:00,60.3,52.0,29.77,NE,45,1.7,-999.0,74,-99.99,,,0.00,Acu-Link.com,2013-08-21 09:05:00,
2013-08-21 02:20:00,59.4,52.2,29.78,East,90,2.7,-999.0,77,-99.99,,,0.00,Acu-Link.com,2013-08-21 09:20:00,
2013-08-21 02:35:00,59.0,53.2,29.78,East,90,0.0,-999.0,81,-99.99,,,0.00,Acu-Link.com,2013-08-21 09:35:00,
2013-08-21 02:51:00,58.6,52.4,29.77,NE,45,0.0,-999.0,80,-99.99,,,0.00,Acu-Link.com,2013-08-21 09:51:00,
2013-08-21 03:06:00,57.7,52.2,29.77,ESE,112,1.1,-999.0,82,-99.99,,,0.00,Acu-Link.com,2013-08-21 10:06:00,
2013-08-21 03:21:00,57.9,52.4,29.77,ESE,112,1.7,-999.0,82,-99.99,,,0.00,Acu-Link.com,2013-08-21 10:21:00,
2013-08-21 03:36:00,57.2,52.7,29.77,ESE,112,0.0,-999.0,85,-99.99,,,0.00,Acu-Link.com,2013-08-21 10:36:00,
2013-08-21 03:51:00,57.9,53.1,29.77,NNE,22,2.7,-999.0,84,-99.99,,,0.00,Acu-Link.com,2013-08-21 10:51:00,
2013-08-21 04:06:00,58.6,53.1,29.76,NE,45,3.2,-999.0,82,-99.99,,,0.00,Acu-Link.com,2013-08-21 11:06:00,
2013-08-21 04:21:00,58.3,52.5,29.75,East,90,0.0,-999.0,81,-99.99,,,0.00,Acu-Link.com,2013-08-21 11:21:00,
2013-08-21 04:36:00,57.6,52.1,29.76,East,90,2.7,-999.0,82,-99.99,,,0.00,Acu-Link.com,2013-08-21 11:36:00,
2013-08-21 04:51:00,57.6,51.8,29.76,NW,315,2.2,-999.0,81,-99.99,,,0.00,Acu-Link.com,2013-08-21 11:51:00,
2013-08-21 05:07:00,57.6,51.8,29.76,NE,45,3.2,-999.0,81,-99.99,,,0.00,Acu-Link.com,2013-08-21 12:07:00,
2013-08-21 05:22:00,58.1,52.0,29.76,NNE,22,3.2,-999.0,80,-99.99,,,0.00,Acu-Link.com,2013-08-21 12:22:00,
2013-08-21 05:37:00,57.7,52.6,29.77,NE,45,0.0,-999.0,83,-99.99,,,0.00,Acu-Link.com,2013-08-21 12:37:00,
2013-08-21 05:52:00,57.9,53.4,29.76,NNE,22,3.7,-999.0,85,-99.99,,,0.00,Acu-Link.com,2013-08-21 12:52:00,
2013-08-21 06:07:00,57.7,52.2,29.77,NE,45,3.7,-999.0,82,-99.99,,,0.00,Acu-Link.com,2013-08-21 13:07:00,
2013-08-21 06:22:00,57.7,52.2,29.77,ESE,112,2.7,-999.0,82,-99.99,,,0.00,Acu-Link.com,2013-08-21 13:22:00,
2013-08-21 06:37:00,57.7,53.2,29.77,East,90,3.7,-999.0,85,-99.99,,,0.00,Acu-Link.com,2013-08-21 13:37:00,
2013-08-21 06:52:00,57.6,53.8,29.78,NE,45,2.7,-999.0,87,-99.99,,,0.00,Acu-Link.com,2013-08-21 13:52:00,
2013-08-21 07:07:00,58.1,53.3,29.78,NE,45,2.2,-999.0,84,-99.99,,,0.00,Acu-Link.com,2013-08-21 14:07:00,
2013-08-21 07:23:00,61.7,54.4,29.79,East,90,0.0,-999.0,77,-99.99,,,0.00,Acu-Link.com,2013-08-21 14:23:00,
2013-08-21 07:38:00,61.9,54.6,29.78,ENE,67,2.7,-999.0,77,-99.99,,,0.00,Acu-Link.com,2013-08-21 14:38:00,
2013-08-21 07:53:00,63.7,53.7,29.78,NE,45,2.7,-999.0,70,-99.99,,,0.00,Acu-Link.com,2013-08-21 14:53:00,
2013-08-21 08:08:00,64.6,53.4,29.77,NNE,22,2.7,-999.0,67,-99.99,,,0.00,Acu-Link.com,2013-08-21 15:08:00,
2013-08-21 08:23:00,67.1,53.6,29.77,NNE,22,2.7,-999.0,62,-99.99,,,0.00,Acu-Link.com,2013-08-21 15:23:00,
2013-08-21 08:38:00,68.4,54.0,29.77,ENE,67,0.0,-999.0,60,-99.99,,,0.00,Acu-Link.com,2013-08-21 15:38:00,
2013-08-21 08:53:00,67.6,52.8,29.77,NNE,22,4.2,-999.0,59,-99.99,,,0.00,Acu-Link.com,2013-08-21 15:53:00,
2013-08-21 09:08:00,66.7,53.3,29.77,NE,45,4.7,-999.0,62,-99.99,,,0.00,Acu-Link.com,2013-08-21 16:08:00,
2013-08-21 09:23:00,66.9,53.9,29.78,NE,45,4.7,-999.0,63,-99.99,,,0.00,Acu-Link.com,2013-08-21 16:23:00,
2013-08-21 09:39:00,66.7,53.7,29.77,North,0,7.8,-999.0,63,-99.99,,,0.00,Acu-Link.com,2013-08-21 16:39:00,
2013-08-21 09:54:00,67.8,53.4,29.77,NE,45,8.9,-999.0,60,-99.99,,,0.00,Acu-Link.com,2013-08-21 16:54:00,
2013-08-21 10:09:00,67.6,54.5,29.77,NNE,22,8.9,-999.0,63,-99.99,,,0.00,Acu-Link.com,2013-08-21 17:09:00,
2013-08-21 10:24:00,68.4,54.4,29.77,NNW,337,5.3,-999.0,61,-99.99,,,0.00,Acu-Link.com,2013-08-21 17:24:00,
2013-08-21 10:39:00,68.5,55.4,29.76,NW,315,6.8,-999.0,63,-99.99,,,0.00,Acu-Link.com,2013-08-21 17:39:00,
2013-08-21 10:54:00,69.6,55.1,29.76,ENE,67,5.3,-999.0,60,-99.99,,,0.00,Acu-Link.com,2013-08-21 17:54:00,
2013-08-21 11:09:00,70.2,54.2,29.75,North,0,9.9,-999.0,57,-99.99,,,0.00,Acu-Link.com,2013-08-21 18:09:00,
2013-08-21 11:24:00,70.9,55.4,29.75,North,0,6.3,-999.0,58,-99.99,,,0.00,Acu-Link.com,2013-08-21 18:24:00,
2013-08-21 11:39:00,70.3,54.8,29.75,WSW,247,4.7,-999.0,58,-99.99,,,0.00,Acu-Link.com,2013-08-21 18:39:00,
2013-08-21 11:55:00,70.9,55.8,29.74,West,270,7.3,-999.0,59,-99.99,,,0.00,Acu-Link.com,2013-08-21 18:55:00,
2013-08-21 12:10:00,71.1,55.6,29.74,NNW,337,6.8,-999.0,58,-99.99,,,0.00,Acu-Link.com,2013-08-21 19:10:00,
2013-08-21 12:25:00,71.1,56.5,29.74,North,0,5.8,-999.0,60,-99.99,,,0.00,Acu-Link.com,2013-08-21 19:25:00,
2013-08-21 12:40:00,72.0,56.9,29.73,WNW,292,6.3,-999.0,59,-99.99,,,0.00,Acu-Link.com,2013-08-21 19:40:00,
2013-08-21 12:55:00,72.3,56.2,29.72,NW,315,5.8,-999.0,57,-99.99,,,0.00,Acu-Link.com,2013-08-21 19:55:00,
2013-08-21 13:10:00,73.4,56.2,29.72,West,270,6.8,-999.0,55,-99.99,,,0.00,Acu-Link.com,2013-08-21 20:10:00,
2013-08-21 13:25:00,73.9,57.2,29.72,West,270,6.3,-999.0,56,-99.99,,,0.00,Acu-Link.com,2013-08-21 20:25:00,
2013-08-21 13:40:00,73.9,56.7,29.71,NW,315,7.8,-999.0,55,-99.99,,,0.00,Acu-Link.com,2013-08-21 20:40:00,
2013-08-21 13:56:00,74.3,56.6,29.71,WNW,292,7.8,-999.0,54,-99.99,,,0.00,Acu-Link.com,2013-08-21 20:56:00,
2013-08-21 14:11:00,74.5,56.7,29.70,WSW,247,3.7,-999.0,54,-99.99,,,0.00,Acu-Link.com,2013-08-21 21:11:00,
2013-08-21 14:26:00,74.8,58.0,29.69,NNE,22,8.3,-999.0,56,-99.99,,,0.00,Acu-Link.com,2013-08-21 21:26:00,
2013-08-21 14:41:00,74.5,58.3,29.70,NE,45,5.8,-999.0,57,-99.99,,,0.00,Acu-Link.com,2013-08-21 21:41:00,
2013-08-21 14:56:00,74.3,58.1,29.68,NE,45,5.8,-999.0,57,-99.99,,,0.00,Acu-Link.com,2013-08-21 21:56:00,
2013-08-21 15:11:00,74.3,57.6,29.68,West,270,6.8,-999.0,56,-99.99,,,0.00,Acu-Link.com,2013-08-21 22:11:00,
2013-08-21 15:26:00,74.5,57.3,29.67,North,0,8.3,-999.0,55,-99.99,,,0.00,Acu-Link.com,2013-08-21 22:26:00,
2013-08-21 15:42:00,74.3,57.1,29.67,NNW,337,9.9,-999.0,55,-99.99,,,0.00,Acu-Link.com,2013-08-21 22:42:00,
2013-08-21 15:57:00,74.7,57.4,29.67,WNW,292,10.4,-999.0,55,-99.99,,,0.00,Acu-Link.com,2013-08-21 22:57:00,
2013-08-21 16:12:00,74.5,57.8,29.66,NNE,22,11.4,-999.0,56,-99.99,,,0.00,Acu-Link.com,2013-08-21 23:12:00,
2013-08-21 16:27:00,75.6,58.3,29.65,West,270,5.8,-999.0,55,-99.99,,,0.00,Acu-Link.com,2013-08-21 23:27:00,
2013-08-21 16:42:00,75.9,58.6,29.64,North,0,7.8,-999.0,55,-99.99,,,0.00,Acu-Link.com,2013-08-21 23:42:00,
2013-08-21 16:57:00,76.1,58.7,29.63,West,270,5.3,-999.0,55,-99.99,,,0.00,Acu-Link.com,2013-08-21 23:57:00,
2013-08-21 17:12:00,75.9,58.6,29.63,NW,315,6.3,-999.0,55,-99.99,,,0.00,Acu-Link.com,2013-08-22 00:12:00,
2013-08-21 17:27:00,75.9,58.0,29.62,West,270,7.8,-999.0,54,-99.99,,,0.00,Acu-Link.com,2013-08-22 00:27:00,
2013-08-21 17:43:00,76.1,58.2,29.64,WSW,247,6.8,-999.0,54,-99.99,,,0.00,Acu-Link.com,2013-08-22 00:43:00,
2013-08-21 17:58:00,76.3,58.4,29.62,WNW,292,6.3,-999.0,54,-99.99,,,0.00,Acu-Link.com,2013-08-22 00:58:00,
2013-08-21 18:13:00,76.3,57.9,29.62,West,270,4.7,-999.0,53,-99.99,,,0.00,Acu-Link.com,2013-08-22 01:13:00,
2013-08-21 18:28:00,76.6,58.2,29.61,NNW,337,4.7,-999.0,53,-99.99,,,0.00,Acu-Link.com,2013-08-22 01:28:00,
2013-08-21 18:43:00,76.3,58.4,29.61,NNW,337,4.2,-999.0,54,-99.99,,,0.00,Acu-Link.com,2013-08-22 01:43:00,
2013-08-21 18:58:00,76.1,58.2,29.60,WSW,247,4.7,-999.0,54,-99.99,,,0.00,Acu-Link.com,2013-08-22 01:58:00,
2013-08-21 19:13:00,75.9,58.0,29.60,WNW,292,4.2,-999.0,54,-99.99,,,0.00,Acu-Link.com,2013-08-22 02:13:00,
2013-08-21 19:28:00,75.7,57.9,29.61,WNW,292,7.8,-999.0,54,-99.99,,,0.00,Acu-Link.com,2013-08-22 02:28:00,
2013-08-21 19:43:00,75.2,57.9,29.61,NNW,337,6.3,-999.0,55,-99.99,,,0.00,Acu-Link.com,2013-08-22 02:43:00,
2013-08-21 19:59:00,74.3,57.6,29.61,WNW,292,3.7,-999.0,56,-99.99,,,0.00,Acu-Link.com,2013-08-22 02:59:00,
2013-08-21 20:14:00,73.8,57.6,29.61,NW,315,3.2,-999.0,57,-99.99,,,0.00,Acu-Link.com,2013-08-22 03:14:00,
2013-08-21 20:29:00,73.2,57.5,29.61,WNW,292,0.0,-999.0,58,-99.99,,,0.00,Acu-Link.com,2013-08-22 03:29:00,
2013-08-21 20:44:00,72.5,58.7,29.62,West,270,2.7,-999.0,62,-99.99,,,0.00,Acu-Link.com,2013-08-22 03:44:00,
2013-08-21 20:59:00,72.0,58.7,29.62,West,270,0.0,-999.0,63,-99.99,,,0.00,Acu-Link.com,2013-08-22 03:59:00,
2013-08-21 21:14:00,71.6,58.3,29.62,West,270,1.1,-999.0,63,-99.99,,,0.00,Acu-Link.com,2013-08-22 04:14:00,
2013-08-21 21:29:00,71.4,55.8,29.62,NW,315,3.2,-999.0,58,-99.99,,,0.00,Acu-Link.com,2013-08-22 04:29:00,
2013-08-21 21:44:00,71.6,55.5,29.64,North,0,2.2,-999.0,57,-99.99,,,0.00,Acu-Link.com,2013-08-22 04:44:00,
2013-08-21 21:59:00,70.9,56.8,29.62,NNE,22,0.0,-999.0,61,-99.99,,,0.00,Acu-Link.com,2013-08-22 04:59:00,
2013-08-21 22:14:00,69.6,56.0,29.63,NNE,22,0.0,-999.0,62,-99.99,,,0.00,Acu-Link.com,2013-08-22 05:14:00,
2013-08-21 22:30:00,69.4,56.2,29.63,NNW,337,0.0,-999.0,63,-99.99,,,0.00,Acu-Link.com,2013-08-22 05:30:00,
2013-08-21 22:45:00,69.1,56.4,29.62,North,0,0.0,-999.0,64,-99.99,,,0.00,Acu-Link.com,2013-08-22 05:45:00,
2013-08-21 23:00:00,69.4,55.4,29.63,NW,315,3.2,-999.0,61,-99.99,,,0.00,Acu-Link.com,2013-08-22 06:00:00,
2013-08-21 23:15:00,69.1,53.7,29.63,NNW,337,4.2,-999.0,58,-99.99,,,0.00,Acu-Link.com,2013-08-22 06:15:00,
2013-08-21 23:30:00,68.5,53.6,29.63,NE,45,3.7,-999.0,59,-99.99,,,0.00,Acu-Link.com,2013-08-22 06:30:00,
2013-08-21 23:45:00,68.5,55.0,29.64,NNE,22,2.2,-999.0,62,-99.99,,,0.00,Acu-Link.com,2013-08-22 06:45:00,